sensor_id;sensor_type;location;lat;lon;timestamp;pressure;altitude;pressure_sealevel;temperature;humidity
83152;BME280;73381;58.502;8.624;2024-03-02T00:01:19;99585.69;;;3.66;91.64
83152;BME280;73381;58.502;8.624;2024-03-02T00:04:21;99511.16;;;3.05;90.90
83152;BME280;73381;58.502;8.624;2024-03-02T00:07:23;99566.75;;;3.34;90.38
83152;BME280;73381;58.502;8.624;2024-03-02T00:10:26;99494.47;;;2.93;90.58
83152;BME280;73381;58.502;8.624;2024-03-02T00:13:29;99584.66;;;3.54;90.55
83152;BME280;73381;58.502;8.624;2024-03-02T00:16:32;99499.25;;;2.87;90.59
83152;BME280;73381;58.502;8.624;2024-03-02T00:19:33;99586.25;;;3.43;91.14
83152;BME280;73381;58.502;8.624;2024-03-02T00:22:35;99558.94;;;3.20;91.21
83152;BME280;73381;58.502;8.624;2024-03-02T00:25:39;99567.25;;;3.41;91.56
83152;BME280;73381;58.502;8.624;2024-03-02T00:28:42;99578.63;;;3.40;91.34
83152;BME280;73381;58.502;8.624;2024-03-02T00:31:44;99575.63;;;3.32;91.80
83152;BME280;73381;58.502;8.624;2024-03-02T00:34:46;99573.66;;;3.21;91.22
83152;BME280;73381;58.502;8.624;2024-03-02T00:37:48;99530.63;;;2.85;91.20
83152;BME280;73381;58.502;8.624;2024-03-02T00:40:50;99554.28;;;2.96;91.33
83152;BME280;73381;58.502;8.624;2024-03-02T00:44:01;99592.31;;;3.15;91.28
83152;BME280;73381;58.502;8.624;2024-03-02T00:47:03;99586.78;;;3.05;91.68
83152;BME280;73381;58.502;8.624;2024-03-02T00:50:06;99587.91;;;3.01;91.76
83152;BME280;73381;58.502;8.624;2024-03-02T00:53:23;99604.31;;;3.03;91.90
83152;BME280;73381;58.502;8.624;2024-03-02T00:56:25;99590.97;;;3.08;92.73
83152;BME280;73381;58.502;8.624;2024-03-02T00:59:28;99568.53;;;3.05;92.28
83152;BME280;73381;58.502;8.624;2024-03-02T01:02:30;99580.84;;;3.17;92.64
83152;BME280;73381;58.502;8.624;2024-03-02T01:05:32;99587.72;;;3.18;92.41
83152;BME280;73381;58.502;8.624;2024-03-02T01:08:34;99588.84;;;3.14;92.04
83152;BME280;73381;58.502;8.624;2024-03-02T01:11:36;99593.59;;;3.08;92.60
83152;BME280;73381;58.502;8.624;2024-03-02T01:14:39;99597.34;;;3.18;92.83
83152;BME280;73381;58.502;8.624;2024-03-02T01:17:41;99593.97;;;3.16;92.48
83152;BME280;73381;58.502;8.624;2024-03-02T01:20:43;99545.88;;;2.91;92.80
83152;BME280;73381;58.502;8.624;2024-03-02T01:23:45;99591.56;;;3.27;92.78
83152;BME280;73381;58.502;8.624;2024-03-02T01:26:47;99589.91;;;3.26;92.77
83152;BME280;73381;58.502;8.624;2024-03-02T01:29:50;99528.22;;;2.82;92.79
83152;BME280;73381;58.502;8.624;2024-03-02T01:32:52;99595.13;;;3.26;93.16
83152;BME280;73381;58.502;8.624;2024-03-02T01:35:54;99596.88;;;3.25;93.03
83152;BME280;73381;58.502;8.624;2024-03-02T01:38:56;99541.78;;;2.87;92.44
83152;BME280;73381;58.502;8.624;2024-03-02T01:41:58;99596.31;;;3.20;92.74
83152;BME280;73381;58.502;8.624;2024-03-02T01:45:01;99594.72;;;3.18;92.81
83152;BME280;73381;58.502;8.624;2024-03-02T01:48:04;99547.56;;;2.92;92.62
83152;BME280;73381;58.502;8.624;2024-03-02T01:51:07;99504.25;;;2.61;92.46
83152;BME280;73381;58.502;8.624;2024-03-02T01:54:09;99348.34;;;1.67;92.80
83152;BME280;73381;58.502;8.624;2024-03-02T01:57:10;99527.53;;;2.79;92.61
83152;BME280;73381;58.502;8.624;2024-03-02T02:00:15;99579.63;;;3.09;93.03
83152;BME280;73381;58.502;8.624;2024-03-02T02:03:17;99584.00;;;3.08;92.93
83152;BME280;73381;58.502;8.624;2024-03-02T02:06:19;99547.34;;;2.81;92.86
83152;BME280;73381;58.502;8.624;2024-03-02T02:09:21;99592.38;;;2.99;93.27
83152;BME280;73381;58.502;8.624;2024-03-02T02:12:24;99588.00;;;3.00;92.94
83152;BME280;73381;58.502;8.624;2024-03-02T02:15:28;99483.16;;;2.36;93.15
83152;BME280;73381;58.502;8.624;2024-03-02T02:18:30;99551.28;;;2.74;93.42
83152;BME280;73381;58.502;8.624;2024-03-02T02:21:33;99478.66;;;2.24;93.32
83152;BME280;73381;58.502;8.624;2024-03-02T02:24:35;99556.22;;;2.79;93.10
83152;BME280;73381;58.502;8.624;2024-03-02T02:27:37;99591.34;;;3.02;93.07
83152;BME280;73381;58.502;8.624;2024-03-02T02:30:39;99592.09;;;3.04;93.29
83152;BME280;73381;58.502;8.624;2024-03-02T02:33:41;99596.75;;;2.98;93.67
83152;BME280;73381;58.502;8.624;2024-03-02T02:36:44;99489.41;;;2.33;93.64
83152;BME280;73381;58.502;8.624;2024-03-02T02:39:47;99547.84;;;2.74;93.45
83152;BME280;73381;58.502;8.624;2024-03-02T02:42:49;99551.94;;;2.78;93.75
83152;BME280;73381;58.502;8.624;2024-03-02T02:45:51;99587.28;;;2.97;93.58
83152;BME280;73381;58.502;8.624;2024-03-02T02:48:53;99569.75;;;2.85;93.84
83152;BME280;73381;58.502;8.624;2024-03-02T02:51:59;99592.94;;;3.04;93.87
83152;BME280;73381;58.502;8.624;2024-03-02T02:55:02;99590.97;;;3.08;93.48
83152;BME280;73381;58.502;8.624;2024-03-02T02:58:04;99588.66;;;3.03;93.28
83152;BME280;73381;58.502;8.624;2024-03-02T03:01:06;99557.78;;;2.81;93.45
83152;BME280;73381;58.502;8.624;2024-03-02T03:04:08;99599.28;;;3.00;93.44
83152;BME280;73381;58.502;8.624;2024-03-02T03:07:11;99597.59;;;2.99;93.55
83152;BME280;73381;58.502;8.624;2024-03-02T03:10:13;99528.50;;;2.48;93.70
83152;BME280;73381;58.502;8.624;2024-03-02T03:13:16;99598.44;;;3.00;93.71
83152;BME280;73381;58.502;8.624;2024-03-02T03:16:18;99600.97;;;3.01;93.56
83152;BME280;73381;58.502;8.624;2024-03-02T03:19:20;99596.69;;;3.00;93.73
83152;BME280;73381;58.502;8.624;2024-03-02T03:22:23;99600.31;;;2.97;93.66
83152;BME280;73381;58.502;8.624;2024-03-02T03:25:25;99577.66;;;2.84;93.49
83152;BME280;73381;58.502;8.624;2024-03-02T03:28:27;99489.88;;;2.40;93.50
83152;BME280;73381;58.502;8.624;2024-03-02T03:31:29;99483.44;;;2.31;93.17
83152;BME280;73381;58.502;8.624;2024-03-02T03:34:32;99602.63;;;3.02;93.91
83152;BME280;73381;58.502;8.624;2024-03-02T03:37:35;99603.28;;;3.06;93.87
83152;BME280;73381;58.502;8.624;2024-03-02T03:40:37;99549.28;;;2.63;93.51
83152;BME280;73381;58.502;8.624;2024-03-02T03:43:39;99518.09;;;2.62;94.14
83152;BME280;73381;58.502;8.624;2024-03-02T03:46:41;99470.50;;;2.30;93.73
83152;BME280;73381;58.502;8.624;2024-03-02T03:49:43;99543.75;;;2.70;94.01
83152;BME280;73381;58.502;8.624;2024-03-02T03:52:46;99486.69;;;2.35;93.82
83152;BME280;73381;58.502;8.624;2024-03-02T03:55:48;99569.09;;;2.96;94.28
83152;BME280;73381;58.502;8.624;2024-03-02T03:58:49;99564.78;;;2.95;94.12
83152;BME280;73381;58.502;8.624;2024-03-02T04:01:51;99557.78;;;2.81;94.40
83152;BME280;73381;58.502;8.624;2024-03-02T04:04:53;99557.13;;;2.78;94.30
83152;BME280;73381;58.502;8.624;2024-03-02T04:07:56;99541.22;;;2.68;93.88
83152;BME280;73381;58.502;8.624;2024-03-02T04:10:58;99543.47;;;2.74;94.23
83152;BME280;73381;58.502;8.624;2024-03-02T04:14:00;99524.66;;;2.69;94.15
83152;BME280;73381;58.502;8.624;2024-03-02T04:17:02;99548.69;;;2.88;94.45
83152;BME280;73381;58.502;8.624;2024-03-02T04:20:05;99555.28;;;2.94;94.14
83152;BME280;73381;58.502;8.624;2024-03-02T04:23:08;99572.81;;;3.06;94.05
83152;BME280;73381;58.502;8.624;2024-03-02T04:26:10;99584.09;;;3.21;94.26
83152;BME280;73381;58.502;8.624;2024-03-02T04:29:12;99531.38;;;2.87;94.18
83152;BME280;73381;58.502;8.624;2024-03-02T04:32:14;99585.97;;;3.19;94.17
83152;BME280;73381;58.502;8.624;2024-03-02T04:35:16;99503.03;;;2.67;94.03
83152;BME280;73381;58.502;8.624;2024-03-02T04:38:19;99589.91;;;3.26;93.86
83152;BME280;73381;58.502;8.624;2024-03-02T04:41:21;99487.66;;;2.62;93.65
83152;BME280;73381;58.502;8.624;2024-03-02T04:44:23;99447.72;;;2.33;93.46
83152;BME280;73381;58.502;8.624;2024-03-02T04:47:25;99502.03;;;2.70;93.68
83152;BME280;73381;58.502;8.624;2024-03-02T04:50:26;99582.63;;;3.17;94.21
83152;BME280;73381;58.502;8.624;2024-03-02T04:53:30;99501.38;;;2.80;93.98
83152;BME280;73381;58.502;8.624;2024-03-02T04:56:31;99554.66;;;3.05;94.03
83152;BME280;73381;58.502;8.624;2024-03-02T04:59:33;99579.63;;;3.23;94.24
83152;BME280;73381;58.502;8.624;2024-03-02T05:02:35;99474.00;;;2.59;94.11
83152;BME280;73381;58.502;8.624;2024-03-02T05:05:37;99582.06;;;3.26;94.01
83152;BME280;73381;58.502;8.624;2024-03-02T05:08:40;99536.38;;;2.90;93.97
83152;BME280;73381;58.502;8.624;2024-03-02T05:11:42;99545.91;;;3.06;94.25
83152;BME280;73381;58.502;8.624;2024-03-02T05:14:45;99517.09;;;2.79;93.90
83152;BME280;73381;58.502;8.624;2024-03-02T05:17:47;99407.03;;;2.17;94.11
83152;BME280;73381;58.502;8.624;2024-03-02T05:20:49;99581.50;;;3.21;94.51
83152;BME280;73381;58.502;8.624;2024-03-02T05:23:53;99532.50;;;2.97;94.35
83152;BME280;73381;58.502;8.624;2024-03-02T05:26:57;99589.06;;;3.25;94.34
83152;BME280;73381;58.502;8.624;2024-03-02T05:29:59;99518.88;;;2.92;94.44
83152;BME280;73381;58.502;8.624;2024-03-02T05:33:01;99588.03;;;3.28;94.48
83152;BME280;73381;58.502;8.624;2024-03-02T05:36:03;99586.34;;;3.27;94.36
83152;BME280;73381;58.502;8.624;2024-03-02T05:39:07;99508.00;;;2.86;94.42
83152;BME280;73381;58.502;8.624;2024-03-02T05:42:09;99565.47;;;3.13;94.36
83152;BME280;73381;58.502;8.624;2024-03-02T05:45:11;99588.97;;;3.27;94.64
83152;BME280;73381;58.502;8.624;2024-03-02T05:48:13;99522.16;;;2.82;94.58
83152;BME280;73381;58.502;8.624;2024-03-02T05:51:14;99597.13;;;3.21;94.80
83152;BME280;73381;58.502;8.624;2024-03-02T05:54:18;99523.06;;;2.81;94.84
83152;BME280;73381;58.502;8.624;2024-03-02T05:57:20;99596.97;;;3.24;94.82
83152;BME280;73381;58.502;8.624;2024-03-02T06:00:21;99487.13;;;2.57;95.16
83152;BME280;73381;58.502;8.624;2024-03-02T06:03:23;99602.34;;;3.21;94.80
83152;BME280;73381;58.502;8.624;2024-03-02T06:06:25;99501.72;;;2.60;94.84
83152;BME280;73381;58.502;8.624;2024-03-02T06:09:29;99602.84;;;3.27;94.93
83152;BME280;73381;58.502;8.624;2024-03-02T06:12:37;99499.22;;;2.58;94.72
83152;BME280;73381;58.502;8.624;2024-03-02T06:15:39;99608.81;;;3.30;94.55
83152;BME280;73381;58.502;8.624;2024-03-02T06:18:40;99612.81;;;3.35;94.54
83152;BME280;73381;58.502;8.624;2024-03-02T06:21:42;99486.16;;;2.44;94.71
83152;BME280;73381;58.502;8.624;2024-03-02T06:24:46;99616.81;;;3.26;94.54
83152;BME280;73381;58.502;8.624;2024-03-02T06:27:47;99566.94;;;3.03;94.57
83152;BME280;73381;58.502;8.624;2024-03-02T06:30:49;99556.22;;;2.93;94.35
83152;BME280;73381;58.502;8.624;2024-03-02T06:33:51;99626.69;;;3.36;94.35
83152;BME280;73381;58.502;8.624;2024-03-02T06:36:53;99588.13;;;3.12;94.36
83152;BME280;73381;58.502;8.624;2024-03-02T06:39:57;99603.59;;;3.15;94.01
83152;BME280;73381;58.502;8.624;2024-03-02T06:42:58;99513.09;;;2.59;94.08
83152;BME280;73381;58.502;8.624;2024-03-02T06:46:00;99620.63;;;3.21;94.09
83152;BME280;73381;58.502;8.624;2024-03-02T06:49:02;99644.13;;;3.35;94.21
83152;BME280;73381;58.502;8.624;2024-03-02T06:52:04;99636.84;;;3.26;94.33
83152;BME280;73381;58.502;8.624;2024-03-02T06:55:08;99647.75;;;3.33;94.33
83152;BME280;73381;58.502;8.624;2024-03-02T06:58:10;99595.66;;;3.03;93.79
83152;BME280;73381;58.502;8.624;2024-03-02T07:01:12;99579.44;;;2.97;94.38
83152;BME280;73381;58.502;8.624;2024-03-02T07:04:14;99645.06;;;3.34;94.17
83152;BME280;73381;58.502;8.624;2024-03-02T07:07:16;99549.97;;;2.81;94.33
83152;BME280;73381;58.502;8.624;2024-03-02T07:10:19;99592.28;;;3.01;94.06
83152;BME280;73381;58.502;8.624;2024-03-02T07:13:20;99642.44;;;3.34;93.88
83152;BME280;73381;58.502;8.624;2024-03-02T07:16:22;99543.38;;;2.76;94.31
83152;BME280;73381;58.502;8.624;2024-03-02T07:19:24;99645.69;;;3.38;94.37
83152;BME280;73381;58.502;8.624;2024-03-02T07:22:26;99645.06;;;3.34;94.07
83152;BME280;73381;58.502;8.624;2024-03-02T07:25:29;99645.88;;;3.35;93.97
83152;BME280;73381;58.502;8.624;2024-03-02T07:28:34;99613.72;;;3.20;94.20
83152;BME280;73381;58.502;8.624;2024-03-02T07:31:36;99510.47;;;2.59;93.99
83152;BME280;73381;58.502;8.624;2024-03-02T07:34:38;99642.84;;;3.42;93.95
83152;BME280;73381;58.502;8.624;2024-03-02T07:37:41;99643.84;;;3.40;93.83
83152;BME280;73381;58.502;8.624;2024-03-02T07:40:44;99638.34;;;3.30;94.18
83152;BME280;73381;58.502;8.624;2024-03-02T07:43:46;99520.06;;;2.58;93.82
83152;BME280;73381;58.502;8.624;2024-03-02T07:46:48;99649.91;;;3.40;94.55
83152;BME280;73381;58.502;8.624;2024-03-02T07:49:50;99655.13;;;3.40;94.25
83152;BME280;73381;58.502;8.624;2024-03-02T07:52:52;99656.22;;;3.36;94.35
83152;BME280;73381;58.502;8.624;2024-03-02T07:55:56;99653.63;;;3.36;94.38
83152;BME280;73381;58.502;8.624;2024-03-02T07:58:58;99625.09;;;3.19;94.36
83152;BME280;73381;58.502;8.624;2024-03-02T08:02:00;99615.69;;;3.16;94.92
83152;BME280;73381;58.502;8.624;2024-03-02T08:05:02;99582.31;;;2.93;94.50
83152;BME280;73381;58.502;8.624;2024-03-02T08:08:04;99571.31;;;2.88;94.48
83152;BME280;73381;58.502;8.624;2024-03-02T08:11:07;99607.13;;;3.14;94.70
83152;BME280;73381;58.502;8.624;2024-03-02T08:14:09;99533.22;;;2.71;94.59
83152;BME280;73381;58.502;8.624;2024-03-02T08:17:11;99623.81;;;3.40;94.87
83152;BME280;73381;58.502;8.624;2024-03-02T08:20:13;99660.72;;;3.63;94.65
83152;BME280;73381;58.502;8.624;2024-03-02T08:23:15;99658.59;;;3.69;94.82
83152;BME280;73381;58.502;8.624;2024-03-02T08:26:19;99663.50;;;3.74;94.62
83152;BME280;73381;58.502;8.624;2024-03-02T08:29:21;99663.72;;;3.71;94.75
83152;BME280;73381;58.502;8.624;2024-03-02T08:32:22;99605.44;;;3.42;94.13
83152;BME280;73381;58.502;8.624;2024-03-02T08:35:24;99590.34;;;3.33;94.15
83152;BME280;73381;58.502;8.624;2024-03-02T08:38:26;99576.56;;;3.31;94.13
83152;BME280;73381;58.502;8.624;2024-03-02T08:41:29;99597.53;;;3.43;94.54
83152;BME280;73381;58.502;8.624;2024-03-02T08:44:31;99656.50;;;3.88;94.20
83152;BME280;73381;58.502;8.624;2024-03-02T08:47:33;99643.34;;;3.90;94.27
83152;BME280;73381;58.502;8.624;2024-03-02T08:50:35;99563.78;;;3.40;93.96
83152;BME280;73381;58.502;8.624;2024-03-02T08:53:37;99640.09;;;3.86;93.59
83152;BME280;73381;58.502;8.624;2024-03-02T08:56:40;99590.97;;;3.65;93.29
83152;BME280;73381;58.502;8.624;2024-03-02T08:59:42;99613.44;;;3.81;93.42
83152;BME280;73381;58.502;8.624;2024-03-02T09:02:44;99615.00;;;3.84;93.46
83152;BME280;73381;58.502;8.624;2024-03-02T09:05:46;99637.94;;;3.93;93.44
83152;BME280;73381;58.502;8.624;2024-03-02T09:08:48;99639.53;;;3.96;93.47
83152;BME280;73381;58.502;8.624;2024-03-02T09:11:51;99616.69;;;3.85;93.30
83152;BME280;73381;58.502;8.624;2024-03-02T09:14:53;99641.84;;;4.00;93.26
83152;BME280;73381;58.502;8.624;2024-03-02T09:17:55;99640.91;;;4.01;93.14
83152;BME280;73381;58.502;8.624;2024-03-02T09:20:57;99592.63;;;3.80;93.54
83152;BME280;73381;58.502;8.624;2024-03-02T09:23:59;99626.91;;;4.02;93.03
83152;BME280;73381;58.502;8.624;2024-03-02T09:27:02;99643.41;;;4.03;92.94
83152;BME280;73381;58.502;8.624;2024-03-02T09:30:06;99641.94;;;3.99;93.01
83152;BME280;73381;58.502;8.624;2024-03-02T09:33:09;99642.69;;;4.01;93.33
83152;BME280;73381;58.502;8.624;2024-03-02T09:36:17;99601.03;;;3.85;92.92
83152;BME280;73381;58.502;8.624;2024-03-02T09:39:19;99634.09;;;3.99;92.95
83152;BME280;73381;58.502;8.624;2024-03-02T09:42:22;99604.47;;;3.85;92.73
83152;BME280;73381;58.502;8.624;2024-03-02T09:45:26;99598.59;;;3.82;92.88
83152;BME280;73381;58.502;8.624;2024-03-02T09:48:28;99607.81;;;3.87;92.72
83152;BME280;73381;58.502;8.624;2024-03-02T09:51:31;99630.16;;;4.06;92.50
83152;BME280;73381;58.502;8.624;2024-03-02T09:54:32;99631.94;;;4.05;92.35
83152;BME280;73381;58.502;8.624;2024-03-02T09:57:36;99627.94;;;4.00;92.77
83152;BME280;73381;58.502;8.624;2024-03-02T10:00:41;99626.56;;;3.94;92.76
83152;BME280;73381;58.502;8.624;2024-03-02T10:03:44;99615.81;;;3.99;92.55
83152;BME280;73381;58.502;8.624;2024-03-02T10:06:46;99619.81;;;4.04;92.58
83152;BME280;73381;58.502;8.624;2024-03-02T10:09:49;99626.91;;;4.02;92.68
83152;BME280;73381;58.502;8.624;2024-03-02T10:13:03;99453.59;;;2.94;92.38
83152;BME280;73381;58.502;8.624;2024-03-02T10:16:11;99563.84;;;3.67;92.31
83152;BME280;73381;58.502;8.624;2024-03-02T10:19:17;99599.69;;;3.92;92.54
83152;BME280;73381;58.502;8.624;2024-03-02T10:22:23;99556.75;;;3.69;92.34
83152;BME280;73381;58.502;8.624;2024-03-02T10:25:29;99625.03;;;4.04;92.28
83152;BME280;73381;58.502;8.624;2024-03-02T10:28:47;99595.59;;;3.88;92.12
83152;BME280;73381;58.502;8.624;2024-03-02T10:31:49;99630.91;;;4.08;92.40
83152;BME280;73381;58.502;8.624;2024-03-02T10:34:51;99530.50;;;3.44;92.51
83152;BME280;73381;58.502;8.624;2024-03-02T10:37:53;99531.44;;;3.43;92.17
83152;BME280;73381;58.502;8.624;2024-03-02T10:40:56;99632.03;;;4.04;92.37
83152;BME280;73381;58.502;8.624;2024-03-02T10:44:01;99630.06;;;4.07;92.18
83152;BME280;73381;58.502;8.624;2024-03-02T10:47:05;99633.59;;;4.06;92.28
83152;BME280;73381;58.502;8.624;2024-03-02T10:50:07;99601.84;;;3.85;92.06
83152;BME280;73381;58.502;8.624;2024-03-02T10:53:09;99639.66;;;4.07;92.09
83152;BME280;73381;58.502;8.624;2024-03-02T10:56:16;99598.88;;;3.77;91.88
83152;BME280;73381;58.502;8.624;2024-03-02T10:59:27;99642.38;;;4.05;91.89
83152;BME280;73381;58.502;8.624;2024-03-02T11:02:30;99541.88;;;3.43;91.96
83152;BME280;73381;58.502;8.624;2024-03-02T11:05:36;99626.75;;;3.91;91.92
83152;BME280;73381;58.502;8.624;2024-03-02T11:08:38;99644.34;;;4.02;91.44
83152;BME280;73381;58.502;8.624;2024-03-02T11:11:43;99639.44;;;3.97;91.74
83152;BME280;73381;58.502;8.624;2024-03-02T11:14:46;99646.41;;;4.11;91.82
83152;BME280;73381;58.502;8.624;2024-03-02T11:17:49;99653.50;;;4.09;91.82
83152;BME280;73381;58.502;8.624;2024-03-02T11:20:51;99662.00;;;3.98;91.69
83152;BME280;73381;58.502;8.624;2024-03-02T11:23:53;99553.91;;;3.45;91.68
83152;BME280;73381;58.502;8.624;2024-03-02T11:26:55;99569.72;;;3.56;91.58
83152;BME280;73381;58.502;8.624;2024-03-02T11:29:59;99656.00;;;4.10;91.71
83152;BME280;73381;58.502;8.624;2024-03-02T11:33:01;99657.78;;;4.10;92.11
83152;BME280;73381;58.502;8.624;2024-03-02T11:36:06;99630.19;;;3.92;91.84
83152;BME280;73381;58.502;8.624;2024-03-02T11:39:11;99660.13;;;4.00;92.16
83152;BME280;73381;58.502;8.624;2024-03-02T11:42:14;99656.59;;;4.01;92.20
83152;BME280;73381;58.502;8.624;2024-03-02T11:45:22;99624.88;;;3.79;92.22
83152;BME280;73381;58.502;8.624;2024-03-02T11:48:25;99661.59;;;4.04;92.37
83152;BME280;73381;58.502;8.624;2024-03-02T11:51:27;99657.53;;;4.00;92.27
83152;BME280;73381;58.502;8.624;2024-03-02T11:54:30;99628.72;;;3.87;92.18
83152;BME280;73381;58.502;8.624;2024-03-02T11:57:34;99651.16;;;4.04;92.13
83152;BME280;73381;58.502;8.624;2024-03-02T12:00:37;99642.78;;;3.99;92.06
83152;BME280;73381;58.502;8.624;2024-03-02T12:03:40;99611.75;;;3.80;91.84
83152;BME280;73381;58.502;8.624;2024-03-02T12:06:41;99647.06;;;4.00;91.97
83152;BME280;73381;58.502;8.624;2024-03-02T12:09:43;99645.19;;;4.02;91.94
83152;BME280;73381;58.502;8.624;2024-03-02T12:12:45;99632.81;;;3.92;92.25
83152;BME280;73381;58.502;8.624;2024-03-02T12:15:53;99659.47;;;4.11;92.26
83152;BME280;73381;58.502;8.624;2024-03-02T12:18:55;99653.09;;;4.15;92.27
83152;BME280;73381;58.502;8.624;2024-03-02T12:21:57;99541.25;;;3.39;91.81
83152;BME280;73381;58.502;8.624;2024-03-02T12:24:59;99612.09;;;3.88;91.77
83152;BME280;73381;58.502;8.624;2024-03-02T12:28:02;99649.66;;;4.14;91.83
83152;BME280;73381;58.502;8.624;2024-03-02T12:31:06;99653.31;;;4.12;91.86
83152;BME280;73381;58.502;8.624;2024-03-02T12:34:08;99618.25;;;3.87;91.47
83152;BME280;73381;58.502;8.624;2024-03-02T12:37:12;99656.94;;;4.09;91.94
83152;BME280;73381;58.502;8.624;2024-03-02T12:40:15;99565.44;;;3.55;91.84
83152;BME280;73381;58.502;8.624;2024-03-02T12:43:17;99592.28;;;3.72;91.57
83152;BME280;73381;58.502;8.624;2024-03-02T12:46:20;99647.50;;;4.07;91.61
83152;BME280;73381;58.502;8.624;2024-03-02T12:49:22;99589.75;;;3.70;92.41
83152;BME280;73381;58.502;8.624;2024-03-02T12:52:24;99511.63;;;3.26;91.85
83152;BME280;73381;58.502;8.624;2024-03-02T12:55:26;99590.19;;;3.77;92.12
83152;BME280;73381;58.502;8.624;2024-03-02T12:58:28;99639.50;;;4.10;91.68
83152;BME280;73381;58.502;8.624;2024-03-02T13:01:31;99634.44;;;4.07;91.37
83152;BME280;73381;58.502;8.624;2024-03-02T13:04:33;99551.81;;;3.50;91.42
83152;BME280;73381;58.502;8.624;2024-03-02T13:07:35;99646.03;;;4.03;91.83
83152;BME280;73381;58.502;8.624;2024-03-02T13:10:37;99643.72;;;3.98;92.08
83152;BME280;73381;58.502;8.624;2024-03-02T13:13:39;99642.78;;;3.99;91.86
83152;BME280;73381;58.502;8.624;2024-03-02T13:16:44;99553.81;;;3.33;91.94
83152;BME280;73381;58.502;8.624;2024-03-02T13:19:52;99650.72;;;3.98;92.25
83152;BME280;73381;58.502;8.624;2024-03-02T13:22:54;99606.25;;;3.71;92.05
83152;BME280;73381;58.502;8.624;2024-03-02T13:25:56;99645.41;;;3.99;92.09
83152;BME280;73381;58.502;8.624;2024-03-02T13:28:58;99651.34;;;4.01;92.15
83152;BME280;73381;58.502;8.624;2024-03-02T13:32:01;99653.22;;;3.99;92.19
83152;BME280;73381;58.502;8.624;2024-03-02T13:35:03;99642.31;;;3.93;92.14
83152;BME280;73381;58.502;8.624;2024-03-02T13:38:05;99604.19;;;3.76;92.20
83152;BME280;73381;58.502;8.624;2024-03-02T13:41:07;99622.38;;;3.77;92.22
83152;BME280;73381;58.502;8.624;2024-03-02T13:44:09;99601.03;;;3.71;92.52
83152;BME280;73381;58.502;8.624;2024-03-02T13:47:12;99648.09;;;3.98;92.46
83152;BME280;73381;58.502;8.624;2024-03-02T13:50:14;99601.97;;;3.70;92.35
83152;BME280;73381;58.502;8.624;2024-03-02T13:53:16;99647.47;;;3.94;92.50
83152;BME280;73381;58.502;8.624;2024-03-02T13:56:18;99638.59;;;3.97;92.41
83152;BME280;73381;58.502;8.624;2024-03-02T13:59:19;99621.91;;;3.85;92.61
83152;BME280;73381;58.502;8.624;2024-03-02T14:02:23;99530.97;;;3.22;92.62
83152;BME280;73381;58.502;8.624;2024-03-02T14:05:24;99630.59;;;3.85;93.03
83152;BME280;73381;58.502;8.624;2024-03-02T14:08:26;99578.75;;;3.51;92.62
83152;BME280;73381;58.502;8.624;2024-03-02T14:11:28;99652.50;;;3.83;93.03
83152;BME280;73381;58.502;8.624;2024-03-02T14:14:30;99605.63;;;3.67;93.03
83152;BME280;73381;58.502;8.624;2024-03-02T14:17:34;99609.81;;;3.70;93.06
83152;BME280;73381;58.502;8.624;2024-03-02T14:20:36;99633.00;;;3.88;92.86
83152;BME280;73381;58.502;8.624;2024-03-02T14:23:37;99642.72;;;3.86;92.80
83152;BME280;73381;58.502;8.624;2024-03-02T14:26:39;99643.53;;;3.87;93.09
83152;BME280;73381;58.502;8.624;2024-03-02T14:29:43;99643.53;;;3.87;92.87
83152;BME280;73381;58.502;8.624;2024-03-02T14:32:46;99534.44;;;3.22;92.27
83152;BME280;73381;58.502;8.624;2024-03-02T14:35:48;99646.91;;;3.89;92.55
83152;BME280;73381;58.502;8.624;2024-03-02T14:38:51;99623.22;;;3.78;92.35
83152;BME280;73381;58.502;8.624;2024-03-02T14:41:53;99640.84;;;3.88;92.44
83152;BME280;73381;58.502;8.624;2024-03-02T14:44:55;99639.34;;;3.84;92.32
83152;BME280;73381;58.502;8.624;2024-03-02T14:47:58;99522.06;;;2.97;92.44
83152;BME280;73381;58.502;8.624;2024-03-02T14:51:00;99635.34;;;3.79;92.72
83152;BME280;73381;58.502;8.624;2024-03-02T14:54:03;99596.31;;;3.49;92.65
83152;BME280;73381;58.502;8.624;2024-03-02T14:57:05;99649.91;;;3.83;92.69
83152;BME280;73381;58.502;8.624;2024-03-02T15:00:07;99622.56;;;3.74;92.63
83152;BME280;73381;58.502;8.624;2024-03-02T15:03:11;99654.19;;;3.84;92.07
83152;BME280;73381;58.502;8.624;2024-03-02T15:06:13;99643.09;;;3.80;92.50
83152;BME280;73381;58.502;8.624;2024-03-02T15:09:15;99662.03;;;3.84;92.45
83152;BME280;73381;58.502;8.624;2024-03-02T15:12:16;99662.28;;;3.79;92.46
83152;BME280;73381;58.502;8.624;2024-03-02T15:15:18;99621.75;;;3.60;92.31
83152;BME280;73381;58.502;8.624;2024-03-02T15:18:21;99629.19;;;3.66;92.09
83152;BME280;73381;58.502;8.624;2024-03-02T15:21:23;99622.78;;;3.71;92.20
83152;BME280;73381;58.502;8.624;2024-03-02T15:24:25;99628.44;;;3.78;92.01
83152;BME280;73381;58.502;8.624;2024-03-02T15:27:27;99628.09;;;3.70;92.19
83152;BME280;73381;58.502;8.624;2024-03-02T15:30:29;99516.47;;;3.04;92.11
83152;BME280;73381;58.502;8.624;2024-03-02T15:33:32;99649.16;;;3.81;92.33
83152;BME280;73381;58.502;8.624;2024-03-02T15:36:34;99587.09;;;3.43;92.35
83152;BME280;73381;58.502;8.624;2024-03-02T15:39:36;99611.50;;;3.56;92.17
83152;BME280;73381;58.502;8.624;2024-03-02T15:42:38;99654.94;;;3.86;92.14
83152;BME280;73381;58.502;8.624;2024-03-02T15:45:40;99666.59;;;3.80;92.18
83152;BME280;73381;58.502;8.624;2024-03-02T15:48:43;99663.91;;;3.82;92.18
83152;BME280;73381;58.502;8.624;2024-03-02T15:51:45;99668.19;;;3.83;92.27
83152;BME280;73381;58.502;8.624;2024-03-02T15:54:47;99596.69;;;3.43;92.35
83152;BME280;73381;58.502;8.624;2024-03-02T15:57:49;99612.25;;;3.44;92.31
83152;BME280;73381;58.502;8.624;2024-03-02T16:00:51;99613.00;;;3.46;92.36
83152;BME280;73381;58.502;8.624;2024-03-02T16:03:54;99674.16;;;3.85;92.20
83152;BME280;73381;58.502;8.624;2024-03-02T16:06:56;99602.66;;;3.31;92.01
83152;BME280;73381;58.502;8.624;2024-03-02T16:09:58;99684.03;;;3.80;92.28
83152;BME280;73381;58.502;8.624;2024-03-02T16:13:06;99680.50;;;3.81;92.17
83152;BME280;73381;58.502;8.624;2024-03-02T16:16:08;99688.25;;;3.82;92.14
83152;BME280;73381;58.502;8.624;2024-03-02T16:19:11;99636.88;;;3.54;92.03